Time;durP1;ratioP1;P1;durP2;ratioP2;P2;SDS_P1;SDS_P2;PMS_P1;PMS_P2;Temp;Humidity;BMP_temperature;BMP_pressure;BME280_temperature;BME280_humidity;BME280_pressure;Samples;Min_cycle;Max_cycle;Signal;HPM_P1;HPM_P2
2023/07/23 00:00:18;;;;;;;16.42;4.65;;;;;;;;;;6305031;22;20023;-67
2023/07/23 00:02:45;;;;;;;20.35;5.28;;;;;;;;;;6277551;22;20007;-67
2023/07/23 00:05:10;;;;;;;17.38;5.07;;;;;;;;;;6304920;22;19999;-68
2023/07/23 00:07:36;;;;;;;22.85;4.93;;;;;;;;;;6305341;22;20011;-68
2023/07/23 00:10:03;;;;;;;22.20;5.20;;;;;;;;;;6305494;22;20007;-67
2023/07/23 00:12:29;;;;;;;14.18;5.22;;;;;;;;;;6304190;22;20043;-67
2023/07/23 00:14:54;;;;;;;17.05;4.70;;;;;;;;;;6304470;22;20003;-67
2023/07/23 00:17:20;;;;;;;15.43;4.32;;;;;;;;;;6304738;22;20042;-67
2023/07/23 00:19:46;;;;;;;21.10;5.20;;;;;;;;;;6304441;22;20014;-67
2023/07/23 00:22:12;;;;;;;20.50;4.82;;;;;;;;;;6304131;22;20082;-67
2023/07/23 00:24:37;;;;;;;21.45;5.10;;;;;;;;;;6304324;22;20049;-67
2023/07/23 00:27:03;;;;;;;20.92;4.70;;;;;;;;;;6304042;22;20014;-66
2023/07/23 00:29:30;;;;;;;18.50;4.70;;;;;;;;;;6304253;22;20022;-67
2023/07/23 00:31:55;;;;;;;17.58;4.90;;;;;;;;;;6276959;22;20010;-67
2023/07/23 00:34:21;;;;;;;23.10;5.22;;;;;;;;;;6276900;22;20504;-67
2023/07/23 00:36:47;;;;;;;18.13;4.70;;;;;;;;;;6304648;22;20007;-67
2023/07/23 00:39:13;;;;;;;18.27;5.00;;;;;;;;;;6304745;22;20014;-67
2023/07/23 00:41:39;;;;;;;14.75;4.25;;;;;;;;;;6252122;22;20011;-67
2023/07/23 00:44:04;;;;;;;23.60;5.20;;;;;;;;;;6276564;22;20033;-67
2023/07/23 00:46:31;;;;;;;19.67;5.20;;;;;;;;;;6277343;22;20082;-66
2023/07/23 00:49:01;;;;;;;18.63;5.28;;;;;;;;;;6304691;22;20033;-66
2023/07/23 00:51:28;;;;;;;16.05;4.57;;;;;;;;;;6304451;22;20327;-67
2023/07/23 00:53:54;;;;;;;15.38;4.05;;;;;;;;;;6302448;22;20030;-67
2023/07/23 00:56:20;;;;;;;10.98;3.80;;;;;;;;;;6277190;22;20471;-67
2023/07/23 00:58:47;;;;;;;14.30;4.32;;;;;;;;;;6276987;22;20003;-67
2023/07/23 01:01:13;;;;;;;20.95;5.10;;;;;;;;;;6246809;22;20011;-67
2023/07/23 01:03:38;;;;;;;25.73;4.82;;;;;;;;;;6302161;22;20030;-66
2023/07/23 01:06:05;;;;;;;19.65;5.32;;;;;;;;;;6276681;22;20011;-66
2023/07/23 01:08:33;;;;;;;22.48;5.30;;;;;;;;;;6304586;22;20011;-67
2023/07/23 01:11:01;;;;;;;20.48;4.60;;;;;;;;;;6276997;22;20019;-67
2023/07/23 01:13:27;;;;;;;21.58;4.95;;;;;;;;;;6276351;22;20007;-66
2023/07/23 01:15:53;;;;;;;20.90;5.13;;;;;;;;;;6304617;22;20086;-66
2023/07/23 01:18:20;;;;;;;19.85;5.28;;;;;;;;;;6276656;22;20143;-66
2023/07/23 01:20:45;;;;;;;21.20;4.30;;;;;;;;;;6304208;22;19995;-67
2023/07/23 01:23:11;;;;;;;25.05;5.22;;;;;;;;;;6301746;22;20164;-66
2023/07/23 01:25:37;;;;;;;15.32;4.20;;;;;;;;;;6302267;22;20381;-67
2023/07/23 01:28:03;;;;;;;18.25;4.47;;;;;;;;;;6303692;22;20039;-66
2023/07/23 01:30:28;;;;;;;20.58;4.75;;;;;;;;;;6276365;22;20011;-66
2023/07/23 01:32:55;;;;;;;16.48;4.32;;;;;;;;;;6275717;22;20046;-67
2023/07/23 01:35:21;;;;;;;17.23;3.78;;;;;;;;;;6304055;22;20018;-67
2023/07/23 01:37:47;;;;;;;15.80;4.55;;;;;;;;;;6276122;22;20007;-67
2023/07/23 01:40:15;;;;;;;22.27;5.35;;;;;;;;;;6303780;22;20011;-67
2023/07/23 01:42:44;;;;;;;19.35;5.07;;;;;;;;;;6301965;22;20345;-67
2023/07/23 01:45:10;;;;;;;34.13;6.47;;;;;;;;;;6304486;22;20074;-67
2023/07/23 01:47:36;;;;;;;21.52;4.15;;;;;;;;;;6304303;22;20057;-67
2023/07/23 01:50:02;;;;;;;19.80;4.53;;;;;;;;;;6304414;22;20011;-67
2023/07/23 01:52:29;;;;;;;21.27;4.50;;;;;;;;;;6276633;22;20026;-67
2023/07/23 01:54:55;;;;;;;18.08;4.28;;;;;;;;;;6303800;22;20061;-67
2023/07/23 01:57:20;;;;;;;18.42;5.20;;;;;;;;;;6276137;22;19995;-66
2023/07/23 01:59:47;;;;;;;18.35;4.82;;;;;;;;;;6302162;22;20019;-68
2023/07/23 02:02:13;;;;;;;17.10;4.10;;;;;;;;;;6301780;22;20027;-67
2023/07/23 02:04:39;;;;;;;18.10;4.03;;;;;;;;;;6276554;22;20073;-66
2023/07/23 02:07:05;;;;;;;20.83;4.18;;;;;;;;;;6303932;22;20429;-67
2023/07/23 02:09:30;;;;;;;13.80;4.03;;;;;;;;;;6276069;22;20033;-66
2023/07/23 02:11:56;;;;;;;24.42;4.75;;;;;;;;;;6303378;22;20003;-67
2023/07/23 02:14:22;;;;;;;19.75;4.45;;;;;;;;;;6303143;22;20056;-66
2023/07/23 02:16:47;;;;;;;16.90;4.32;;;;;;;;;;6276440;22;20070;-67
2023/07/23 02:19:13;;;;;;;17.30;3.85;;;;;;;;;;6276212;22;20410;-67
2023/07/23 02:21:39;;;;;;;19.27;5.07;;;;;;;;;;6276312;22;20029;-67
2023/07/23 02:24:06;;;;;;;19.55;4.43;;;;;;;;;;6275601;22;20061;-67
2023/07/23 02:26:31;;;;;;;21.45;4.20;;;;;;;;;;6275902;22;20013;-67
2023/07/23 02:28:57;;;;;;;15.07;4.50;;;;;;;;;;6276244;22;20086;-67
2023/07/23 02:31:23;;;;;;;21.83;5.13;;;;;;;;;;6301931;22;20035;-67
2023/07/23 02:33:49;;;;;;;15.68;4.32;;;;;;;;;;6275299;22;20003;-67
2023/07/23 02:36:14;;;;;;;19.63;4.30;;;;;;;;;;6275724;22;20014;-67
2023/07/23 02:38:40;;;;;;;18.38;3.90;;;;;;;;;;6275709;22;20072;-67
2023/07/23 02:41:07;;;;;;;15.75;5.18;;;;;;;;;;6276031;22;20081;-67
2023/07/23 02:43:33;;;;;;;23.00;4.55;;;;;;;;;;6275558;22;20460;-66
2023/07/23 02:45:59;;;;;;;15.05;3.80;;;;;;;;;;6304177;22;20007;-67
2023/07/23 02:48:25;;;;;;;21.98;4.47;;;;;;;;;;6304535;22;20370;-67
2023/07/23 02:50:52;;;;;;;15.07;3.70;;;;;;;;;;6276682;22;20046;-66
2023/07/23 02:53:18;;;;;;;24.10;5.38;;;;;;;;;;6275510;22;20011;-66
2023/07/23 02:55:45;;;;;;;20.65;5.00;;;;;;;;;;6302189;22;20022;-66
2023/07/23 02:58:11;;;;;;;21.25;4.57;;;;;;;;;;6303930;22;20003;-67
2023/07/23 03:00:40;;;;;;;22.33;4.72;;;;;;;;;;6304198;22;20011;-67
2023/07/23 03:03:09;;;;;;;13.60;3.92;;;;;;;;;;6274506;22;20016;-66
2023/07/23 03:05:36;;;;;;;28.20;4.95;;;;;;;;;;6303067;22;20015;-67
2023/07/23 03:08:03;;;;;;;20.15;4.38;;;;;;;;;;6250349;22;20012;-66
2023/07/23 03:10:30;;;;;;;20.50;4.70;;;;;;;;;;6276382;22;20042;-66
2023/07/23 03:12:55;;;;;;;20.73;4.95;;;;;;;;;;6302961;22;20037;-67
2023/07/23 03:15:22;;;;;;;18.85;4.35;;;;;;;;;;6276287;22;20015;-66
2023/07/23 03:17:50;;;;;;;15.68;4.15;;;;;;;;;;6304171;22;20053;-67
2023/07/23 03:20:16;;;;;;;30.73;4.82;;;;;;;;;;6276423;22;20011;-67
2023/07/23 03:22:42;;;;;;;16.45;4.13;;;;;;;;;;6302990;22;20007;-66
2023/07/23 03:25:08;;;;;;;21.50;5.13;;;;;;;;;;6275551;22;20015;-66
2023/07/23 03:27:34;;;;;;;16.08;4.43;;;;;;;;;;6275635;22;20011;-67
2023/07/23 03:30:00;;;;;;;18.02;4.97;;;;;;;;;;6275796;22;20011;-66
2023/07/23 03:32:25;;;;;;;24.70;5.30;;;;;;;;;;6275369;22;20007;-67
2023/07/23 03:34:51;;;;;;;23.63;4.65;;;;;;;;;;6275820;22;20019;-67
2023/07/23 03:37:17;;;;;;;20.48;4.60;;;;;;;;;;6303256;22;20164;-67
2023/07/23 03:39:42;;;;;;;25.15;4.40;;;;;;;;;;6276118;22;20018;-67
2023/07/23 03:42:08;;;;;;;28.42;4.93;;;;;;;;;;6301362;22;20011;-67
2023/07/23 03:44:34;;;;;;;14.55;4.25;;;;;;;;;;6275511;22;20015;-67
2023/07/23 03:47:10;;;;;;;23.30;4.68;;;;;;;;;;6301451;22;20054;-67
2023/07/23 03:49:36;;;;;;;19.10;4.63;;;;;;;;;;6303190;22;20007;-67
2023/07/23 03:52:02;;;;;;;21.42;4.55;;;;;;;;;;6303099;22;20448;-66
2023/07/23 03:54:28;;;;;;;21.38;5.00;;;;;;;;;;6275230;22;20472;-66
2023/07/23 03:56:54;;;;;;;19.17;5.13;;;;;;;;;;6303635;22;19999;-66
2023/07/23 03:59:20;;;;;;;23.63;4.95;;;;;;;;;;6275355;22;20015;-66
2023/07/23 04:01:45;;;;;;;21.95;4.68;;;;;;;;;;6302974;22;20334;-64
2023/07/23 04:04:11;;;;;;;21.77;5.55;;;;;;;;;;6304144;22;20007;-67
2023/07/23 04:06:37;;;;;;;22.05;4.82;;;;;;;;;;6252037;22;20007;-67
2023/07/23 04:09:02;;;;;;;21.88;5.20;;;;;;;;;;6277703;22;20007;-67
2023/07/23 04:11:29;;;;;;;17.92;4.95;;;;;;;;;;6303484;22;20011;-66
2023/07/23 04:13:54;;;;;;;23.42;4.85;;;;;;;;;;6305211;22;20468;-66
2023/07/23 04:16:20;;;;;;;22.05;4.55;;;;;;;;;;6302971;22;20073;-67
2023/07/23 04:18:48;;;;;;;21.27;4.72;;;;;;;;;;6304988;22;20007;-68
2023/07/23 04:21:15;;;;;;;24.95;4.88;;;;;;;;;;6277644;22;20011;-66
2023/07/23 04:23:40;;;;;;;19.55;5.03;;;;;;;;;;6305302;22;20014;-66
2023/07/23 04:26:06;;;;;;;16.55;4.47;;;;;;;;;;6277506;22;20007;-66
2023/07/23 04:28:32;;;;;;;20.77;4.70;;;;;;;;;;6305287;22;20050;-66
2023/07/23 04:30:57;;;;;;;23.38;5.00;;;;;;;;;;6280019;22;20003;-66
2023/07/23 04:33:23;;;;;;;17.33;4.65;;;;;;;;;;6305458;22;20038;-65
2023/07/23 04:35:49;;;;;;;16.73;4.78;;;;;;;;;;6307933;22;20011;-66
2023/07/23 04:38:15;;;;;;;19.70;5.53;;;;;;;;;;6280030;22;20110;-66
2023/07/23 04:40:41;;;;;;;23.60;4.47;;;;;;;;;;6279934;22;20007;-67
2023/07/23 04:43:09;;;;;;;22.38;5.13;;;;;;;;;;6254141;22;20488;-67
2023/07/23 04:45:34;;;;;;;18.95;4.85;;;;;;;;;;6306963;22;20041;-66
2023/07/23 04:48:00;;;;;;;20.85;5.03;;;;;;;;;;6279584;22;20011;-65
2023/07/23 04:50:26;;;;;;;18.02;4.65;;;;;;;;;;6305430;22;20011;-66
2023/07/23 04:52:52;;;;;;;27.10;5.35;;;;;;;;;;6306869;22;20448;-66
2023/07/23 04:55:17;;;;;;;20.25;5.35;;;;;;;;;;6279792;22;20015;-66
2023/07/23 04:57:43;;;;;;;23.75;4.93;;;;;;;;;;6306956;22;20064;-66
2023/07/23 05:00:09;;;;;;;15.82;4.68;;;;;;;;;;6306700;22;20098;-66
2023/07/23 05:02:35;;;;;;;16.65;4.53;;;;;;;;;;6306981;22;20087;-65
2023/07/23 05:05:00;;;;;;;20.90;4.72;;;;;;;;;;6306771;22;20041;-66
2023/07/23 05:07:26;;;;;;;19.02;4.78;;;;;;;;;;6306751;22;19999;-66
2023/07/23 05:09:52;;;;;;;18.85;5.03;;;;;;;;;;6307090;22;20007;-66
2023/07/23 05:12:17;;;;;;;16.05;4.72;;;;;;;;;;6306988;22;20007;-66
2023/07/23 05:14:46;;;;;;;23.05;5.45;;;;;;;;;;6307180;22;20013;-66
2023/07/23 05:17:12;;;;;;;19.02;4.80;;;;;;;;;;6279559;22;19995;-66
2023/07/23 05:19:38;;;;;;;23.88;5.45;;;;;;;;;;6279794;22;20022;-66
2023/07/23 05:22:04;;;;;;;18.98;4.82;;;;;;;;;;6307504;22;20011;-67
2023/07/23 05:24:30;;;;;;;23.30;5.30;;;;;;;;;;6307612;22;20005;-66
2023/07/23 05:26:55;;;;;;;19.80;4.90;;;;;;;;;;6307415;22;20022;-66
2023/07/23 05:29:21;;;;;;;21.00;5.03;;;;;;;;;;6279778;22;20003;-66
2023/07/23 05:31:47;;;;;;;23.52;5.43;;;;;;;;;;6306664;22;20061;-67
2023/07/23 05:34:12;;;;;;;20.85;5.15;;;;;;;;;;6306198;22;20018;-65
2023/07/23 05:36:38;;;;;;;21.90;4.95;;;;;;;;;;6306677;22;20031;-65
2023/07/23 05:39:04;;;;;;;24.02;5.30;;;;;;;;;;6306963;22;20007;-66
2023/07/23 05:41:29;;;;;;;22.38;5.20;;;;;;;;;;6307095;22;20034;-66
2023/07/23 05:43:55;;;;;;;28.73;6.18;;;;;;;;;;6306741;22;20066;-66
2023/07/23 05:46:21;;;;;;;23.95;5.53;;;;;;;;;;6306648;22;20476;-66
2023/07/23 05:48:48;;;;;;;25.05;5.53;;;;;;;;;;6254010;22;20526;-67
2023/07/23 05:51:14;;;;;;;20.65;5.35;;;;;;;;;;6306837;22;20014;-67
2023/07/23 05:53:40;;;;;;;22.63;5.47;;;;;;;;;;6306061;22;20007;-66
2023/07/23 05:56:07;;;;;;;19.80;4.97;;;;;;;;;;6306342;22;20022;-66
2023/07/23 05:58:33;;;;;;;23.10;5.20;;;;;;;;;;6306504;22;20039;-66
2023/07/23 06:00:58;;;;;;;23.85;5.53;;;;;;;;;;6306409;22;20090;-66
2023/07/23 06:03:24;;;;;;;24.08;5.78;;;;;;;;;;6305881;22;20010;-66
2023/07/23 06:05:50;;;;;;;22.65;5.10;;;;;;;;;;6306300;22;20007;-68
2023/07/23 06:08:16;;;;;;;21.08;4.90;;;;;;;;;;6306368;22;20425;-66
2023/07/23 06:10:41;;;;;;;31.38;5.13;;;;;;;;;;6278997;22;20333;-65
2023/07/23 06:13:07;;;;;;;23.25;5.38;;;;;;;;;;6306016;22;20033;-66
2023/07/23 06:15:33;;;;;;;21.95;5.10;;;;;;;;;;6306357;22;20005;-66
2023/07/23 06:17:59;;;;;;;19.77;5.43;;;;;;;;;;6306980;22;20334;-67
2023/07/23 06:20:25;;;;;;;21.17;5.32;;;;;;;;;;6305000;22;20387;-66
2023/07/23 06:22:51;;;;;;;17.38;5.35;;;;;;;;;;6305596;22;20463;-67
2023/07/23 06:25:17;;;;;;;21.13;5.00;;;;;;;;;;6306148;22;20034;-67
2023/07/23 06:27:42;;;;;;;21.20;5.13;;;;;;;;;;6279085;22;20346;-66
2023/07/23 06:30:08;;;;;;;24.08;5.47;;;;;;;;;;6306640;22;20052;-67
2023/07/23 06:32:34;;;;;;;21.80;5.25;;;;;;;;;;6305849;22;20084;-67
2023/07/23 06:35:00;;;;;;;20.20;5.40;;;;;;;;;;6306329;22;20004;-67
2023/07/23 06:37:26;;;;;;;22.55;5.60;;;;;;;;;;6306183;22;20000;-65
2023/07/23 06:39:52;;;;;;;21.05;5.30;;;;;;;;;;6279365;22;20130;-68
2023/07/23 06:42:17;;;;;;;20.08;4.85;;;;;;;;;;6279327;22;20015;-68
2023/07/23 06:44:43;;;;;;;24.88;4.95;;;;;;;;;;6306390;22;20010;-67
2023/07/23 06:47:09;;;;;;;22.58;4.75;;;;;;;;;;6306329;22;20019;-67
2023/07/23 06:49:34;;;;;;;23.80;5.13;;;;;;;;;;6306485;22;20003;-66
2023/07/23 06:52:00;;;;;;;15.70;4.95;;;;;;;;;;6305867;22;20049;-66
2023/07/23 06:54:26;;;;;;;20.83;5.45;;;;;;;;;;6306822;22;20064;-67
2023/07/23 06:56:53;;;;;;;25.98;5.55;;;;;;;;;;6307438;22;20007;-66
2023/07/23 06:59:20;;;;;;;22.42;5.53;;;;;;;;;;6306943;22;20007;-66
2023/07/23 07:01:45;;;;;;;21.20;5.85;;;;;;;;;;6306133;22;20006;-66
2023/07/23 07:04:11;;;;;;;22.13;5.18;;;;;;;;;;6305762;22;20011;-67
2023/07/23 07:06:37;;;;;;;24.77;4.88;;;;;;;;;;6252675;22;20082;-67
2023/07/23 07:09:03;;;;;;;22.88;5.65;;;;;;;;;;6306379;22;20074;-67
2023/07/23 07:11:29;;;;;;;16.75;5.22;;;;;;;;;;6305693;22;20463;-67
2023/07/23 07:13:55;;;;;;;19.30;4.90;;;;;;;;;;6305520;22;20039;-67
2023/07/23 07:16:20;;;;;;;25.10;5.60;;;;;;;;;;6305962;22;20010;-66
2023/07/23 07:18:46;;;;;;;22.85;5.10;;;;;;;;;;6306148;22;20011;-66
2023/07/23 07:21:12;;;;;;;22.45;5.35;;;;;;;;;;6306442;22;20003;-66
2023/07/23 07:23:38;;;;;;;23.60;5.40;;;;;;;;;;6305904;22;20352;-67
2023/07/23 07:26:04;;;;;;;20.63;5.05;;;;;;;;;;6305554;22;20011;-67
2023/07/23 07:28:32;;;;;;;26.30;5.38;;;;;;;;;;6306297;22;20011;-67
2023/07/23 07:31:01;;;;;;;17.25;4.90;;;;;;;;;;6305767;22;20104;-67
2023/07/23 07:33:28;;;;;;;24.40;5.32;;;;;;;;;;6305529;22;20049;-67
2023/07/23 07:35:57;;;;;;;27.70;5.32;;;;;;;;;;6307361;22;20022;-66
2023/07/23 07:38:25;;;;;;;29.17;5.57;;;;;;;;;;6308060;22;20069;-66
2023/07/23 07:40:51;;;;;;;20.40;5.05;;;;;;;;;;6307409;22;20436;-67
2023/07/23 07:43:18;;;;;;;18.20;5.18;;;;;;;;;;6307568;22;20011;-67
2023/07/23 07:45:51;;;;;;;22.58;5.00;;;;;;;;;;6307615;22;20306;-67
2023/07/23 07:48:20;;;;;;;15.05;4.50;;;;;;;;;;6307783;22;20022;-67
2023/07/23 07:50:48;;;;;;;25.42;5.07;;;;;;;;;;6307980;22;20084;-67
2023/07/23 07:53:15;;;;;;;14.73;5.40;;;;;;;;;;6307559;22;20034;-67
2023/07/23 07:55:42;;;;;;;26.98;5.70;;;;;;;;;;6307746;22;20011;-67
2023/07/23 07:58:13;;;;;;;26.95;5.03;;;;;;;;;;6307533;22;20449;-66
2023/07/23 08:00:41;;;;;;;19.08;4.70;;;;;;;;;;6305979;22;20078;-67
2023/07/23 08:03:07;;;;;;;20.67;4.97;;;;;;;;;;6307750;22;20057;-67
2023/07/23 08:05:33;;;;;;;23.73;5.20;;;;;;;;;;6307645;22;20003;-67
2023/07/23 08:08:00;;;;;;;23.70;5.03;;;;;;;;;;6307521;22;20003;-67
2023/07/23 08:10:26;;;;;;;32.35;5.38;;;;;;;;;;6307697;22;20003;-67
2023/07/23 08:12:53;;;;;;;22.48;4.90;;;;;;;;;;6307255;22;20007;-67
2023/07/23 08:15:20;;;;;;;23.50;5.43;;;;;;;;;;6307507;22;20017;-66
2023/07/23 08:17:46;;;;;;;24.05;5.25;;;;;;;;;;6307522;22;20010;-67
2023/07/23 08:20:13;;;;;;;20.83;5.00;;;;;;;;;;6307569;22;20035;-66
2023/07/23 08:22:39;;;;;;;22.08;4.63;;;;;;;;;;6306978;22;20003;-66
2023/07/23 08:25:05;;;;;;;24.33;5.45;;;;;;;;;;6307426;22;20060;-66
2023/07/23 08:27:34;;;;;;;21.67;6.15;;;;;;;;;;6279536;22;20020;-66
2023/07/23 08:30:00;;;;;;;22.25;5.25;;;;;;;;;;6307362;22;20003;-66
2023/07/23 08:32:27;;;;;;;22.65;6.05;;;;;;;;;;6279856;22;19999;-66
2023/07/23 08:34:53;;;;;;;22.08;5.10;;;;;;;;;;6307510;22;20010;-65
2023/07/23 08:37:19;;;;;;;28.10;5.40;;;;;;;;;;6279926;22;20010;-66
2023/07/23 08:39:45;;;;;;;29.15;5.57;;;;;;;;;;6280098;22;20033;-67
2023/07/23 08:42:44;;;;;;;20.17;5.15;;;;;;;;;;6307143;22;20026;-66
2023/07/23 08:45:56;;;;;;;23.40;5.38;;;;;;;;;;6307070;22;20007;-67
2023/07/23 08:48:22;;;;;;;21.13;5.28;;;;;;;;;;6306715;22;20065;-66
2023/07/23 08:50:49;;;;;;;19.75;5.80;;;;;;;;;;6307090;22;20015;-67
2023/07/23 08:53:16;;;;;;;26.05;5.00;;;;;;;;;;6279437;22;20045;-67
2023/07/23 08:55:46;;;;;;;19.30;4.68;;;;;;;;;;6307500;22;20007;-66
2023/07/23 08:58:17;;;;;;;19.52;4.78;;;;;;;;;;6306761;22;20049;-67
2023/07/23 09:00:44;;;;;;;22.85;5.03;;;;;;;;;;6306812;22;20097;-67
2023/07/23 09:03:11;;;;;;;20.08;4.90;;;;;;;;;;6307254;22;20008;-66
2023/07/23 09:05:39;;;;;;;23.33;5.10;;;;;;;;;;6306983;22;20037;-66
2023/07/23 09:08:05;;;;;;;23.17;4.72;;;;;;;;;;6306948;22;20061;-67
2023/07/23 09:10:31;;;;;;;24.15;5.25;;;;;;;;;;6307459;22;20015;-67
2023/07/23 09:12:57;;;;;;;18.45;5.40;;;;;;;;;;6279715;22;20003;-66
2023/07/23 09:15:22;;;;;;;20.58;4.75;;;;;;;;;;6279452;22;20126;-66
2023/07/23 09:17:51;;;;;;;17.80;4.63;;;;;;;;;;6307425;22;20281;-66
2023/07/23 09:20:18;;;;;;;24.15;5.15;;;;;;;;;;6307888;22;20007;-66
2023/07/23 09:22:45;;;;;;;18.50;4.50;;;;;;;;;;6307087;22;20070;-67
2023/07/23 09:25:11;;;;;;;21.98;5.60;;;;;;;;;;6307383;22;19999;-65
2023/07/23 09:27:38;;;;;;;16.08;4.45;;;;;;;;;;6280179;22;20022;-65
2023/07/23 09:30:04;;;;;;;19.90;5.10;;;;;;;;;;6307821;22;20011;-66
2023/07/23 09:32:30;;;;;;;19.73;4.25;;;;;;;;;;6306671;22;20022;-67
2023/07/23 09:34:59;;;;;;;19.35;4.57;;;;;;;;;;6279588;22;20445;-66
2023/07/23 09:37:28;;;;;;;18.17;4.80;;;;;;;;;;6306810;22;20003;-66
2023/07/23 09:39:57;;;;;;;19.27;5.15;;;;;;;;;;6306722;22;20433;-66
2023/07/23 09:42:24;;;;;;;23.38;4.85;;;;;;;;;;6306243;22;20014;-65
2023/07/23 09:44:50;;;;;;;20.23;4.57;;;;;;;;;;6306421;22;20011;-65
2023/07/23 09:47:23;;;;;;;15.48;4.50;;;;;;;;;;6304598;22;20421;-66
2023/07/23 09:49:53;;;;;;;24.48;5.32;;;;;;;;;;6306341;22;20010;-66
2023/07/23 09:52:22;;;;;;;23.55;4.57;;;;;;;;;;6306656;22;20007;-65
2023/07/23 09:54:49;;;;;;;14.13;4.68;;;;;;;;;;6306431;22;20059;-65
2023/07/23 09:57:15;;;;;;;16.35;4.35;;;;;;;;;;6306705;22;20049;-67
2023/07/23 09:59:42;;;;;;;14.80;4.32;;;;;;;;;;6279923;22;20011;-67
2023/07/23 10:02:09;;;;;;;22.95;5.43;;;;;;;;;;6306838;22;20038;-66
2023/07/23 10:04:35;;;;;;;14.45;4.45;;;;;;;;;;6306711;22;20003;-66
2023/07/23 10:07:02;;;;;;;17.27;4.80;;;;;;;;;;6306636;22;20120;-67
2023/07/23 10:09:28;;;;;;;19.58;4.38;;;;;;;;;;6306538;22;20489;-66
2023/07/23 10:11:54;;;;;;;19.20;4.28;;;;;;;;;;6306363;22;20096;-66
2023/07/23 10:14:21;;;;;;;21.35;4.40;;;;;;;;;;6306306;22;19999;-66
2023/07/23 10:16:48;;;;;;;27.25;5.43;;;;;;;;;;6279646;22;20019;-65
2023/07/23 10:19:15;;;;;;;22.05;4.07;;;;;;;;;;6304983;22;20081;-66
2023/07/23 10:21:47;;;;;;;16.58;4.25;;;;;;;;;;6306384;22;20452;-66
2023/07/23 10:24:13;;;;;;;20.63;4.82;;;;;;;;;;6306204;22;20007;-66
2023/07/23 10:26:46;;;;;;;18.65;4.07;;;;;;;;;;6278810;22;20384;-66
2023/07/23 10:29:15;;;;;;;15.68;4.43;;;;;;;;;;6306380;22;20007;-67
2023/07/23 10:31:42;;;;;;;14.27;3.88;;;;;;;;;;6306228;22;19999;-67
2023/07/23 10:34:25;;;;;;;16.38;4.10;;;;;;;;;;6305893;22;20011;-67
2023/07/23 10:37:18;;;;;;;15.65;5.00;;;;;;;;;;6306172;22;20435;-67
2023/07/23 10:39:46;;;;;;;14.55;4.57;;;;;;;;;;6306695;22;20007;-67
2023/07/23 10:42:41;;;;;;;21.33;4.50;;;;;;;;;;6306500;22;20006;-66
2023/07/23 10:45:22;;;;;;;14.25;4.30;;;;;;;;;;6306178;22;20007;-66
2023/07/23 10:47:52;;;;;;;16.70;4.75;;;;;;;;;;6306297;22;20061;-66
2023/07/23 10:50:20;;;;;;;14.80;3.97;;;;;;;;;;6306461;22;20011;-66
2023/07/23 10:52:49;;;;;;;16.38;3.88;;;;;;;;;;6305795;22;20003;-66
2023/07/23 10:55:50;;;;;;;15.30;4.05;;;;;;;;;;6306347;22;20011;-67
2023/07/23 10:58:21;;;;;;;15.77;4.20;;;;;;;;;;6305980;22;20011;-67
2023/07/23 11:00:52;;;;;;;21.38;4.88;;;;;;;;;;6305939;22;20042;-66
2023/07/23 11:03:20;;;;;;;13.73;3.60;;;;;;;;;;6306681;22;20018;-67
2023/07/23 11:05:46;;;;;;;18.30;3.95;;;;;;;;;;6306680;22;20228;-67
2023/07/23 11:08:12;;;;;;;17.42;3.88;;;;;;;;;;6306004;22;20033;-67
2023/07/23 11:10:57;;;;;;;16.73;4.40;;;;;;;;;;6307383;22;20080;-66
2023/07/23 11:13:25;;;;;;;25.15;4.63;;;;;;;;;;6308058;22;20007;-67
2023/07/23 11:15:54;;;;;;;17.02;4.47;;;;;;;;;;6308146;22;20008;-67
2023/07/23 11:18:20;;;;;;;19.10;4.20;;;;;;;;;;6308015;22;19996;-68
2023/07/23 11:20:53;;;;;;;16.15;3.72;;;;;;;;;;6308515;22;20037;-66
2023/07/23 11:23:22;;;;;;;16.83;3.85;;;;;;;;;;6307812;22;20064;-66
2023/07/23 11:25:50;;;;;;;18.95;4.40;;;;;;;;;;6281306;22;20019;-66
2023/07/23 11:28:24;;;;;;;10.80;3.60;;;;;;;;;;6307838;22;20039;-67
2023/07/23 11:30:54;;;;;;;17.48;4.20;;;;;;;;;;6307772;22;20018;-65
2023/07/23 11:33:22;;;;;;;14.40;3.55;;;;;;;;;;6307829;22;20007;-66
2023/07/23 11:35:49;;;;;;;14.93;4.00;;;;;;;;;;6306626;22;20005;-66
2023/07/23 11:38:15;;;;;;;15.20;3.80;;;;;;;;;;6280994;22;20007;-66
2023/07/23 11:40:42;;;;;;;19.23;3.95;;;;;;;;;;6307842;22;20019;-66
2023/07/23 11:43:07;;;;;;;19.88;4.25;;;;;;;;;;6307785;22;20372;-66
2023/07/23 11:45:44;;;;;;;22.67;4.15;;;;;;;;;;6307647;22;20054;-66
2023/07/23 11:48:16;;;;;;;15.32;3.45;;;;;;;;;;6307717;22;20007;-66
2023/07/23 11:50:42;;;;;;;19.35;4.75;;;;;;;;;;6308346;22;20038;-65
2023/07/23 11:53:08;;;;;;;14.95;4.30;;;;;;;;;;6279982;22;20425;-66
2023/07/23 11:55:34;;;;;;;19.38;4.70;;;;;;;;;;6307603;22;20076;-66
2023/07/23 11:58:00;;;;;;;16.42;4.00;;;;;;;;;;6307959;22;19999;-67
2023/07/23 12:00:39;;;;;;;14.25;3.45;;;;;;;;;;6280160;22;20011;-68
2023/07/23 12:03:09;;;;;;;12.40;3.55;;;;;;;;;;6307538;22;20026;-67
2023/07/23 12:05:39;;;;;;;15.68;3.60;;;;;;;;;;6308030;22;20081;-65
2023/07/23 12:08:05;;;;;;;16.75;3.60;;;;;;;;;;6307679;22;20398;-67
2023/07/23 12:10:34;;;;;;;13.23;3.58;;;;;;;;;;6307662;22;20061;-67
2023/07/23 12:13:10;;;;;;;17.02;3.75;;;;;;;;;;6307556;22;20074;-67
2023/07/23 12:15:42;;;;;;;14.38;3.55;;;;;;;;;;6307273;22;20026;-67
2023/07/23 12:18:09;;;;;;;13.75;3.90;;;;;;;;;;6307585;22;20401;-66
2023/07/23 12:20:34;;;;;;;20.27;3.60;;;;;;;;;;6307193;22;20444;-67
2023/07/23 12:23:01;;;;;;;14.73;3.65;;;;;;;;;;6280039;22;20007;-67
2023/07/23 12:25:27;;;;;;;16.50;3.60;;;;;;;;;;6308246;22;20517;-66
2023/07/23 12:27:53;;;;;;;18.73;4.32;;;;;;;;;;6307984;22;19999;-66
2023/07/23 12:30:20;;;;;;;11.77;3.58;;;;;;;;;;6280287;22;20018;-66
2023/07/23 12:32:47;;;;;;;14.80;4.03;;;;;;;;;;6306934;22;20041;-67
2023/07/23 12:35:13;;;;;;;18.48;4.13;;;;;;;;;;6307550;22;20003;-66
2023/07/23 12:37:38;;;;;;;12.38;3.60;;;;;;;;;;6307224;22;20007;-67
2023/07/23 12:40:07;;;;;;;14.38;3.38;;;;;;;;;;6307723;22;20452;-67
2023/07/23 12:42:33;;;;;;;17.25;3.75;;;;;;;;;;6279703;22;20018;-67
2023/07/23 12:45:00;;;;;;;15.93;3.35;;;;;;;;;;6279666;22;20035;-67
2023/07/23 12:47:27;;;;;;;10.88;3.25;;;;;;;;;;6306827;22;19995;-67
2023/07/23 12:49:56;;;;;;;15.05;3.58;;;;;;;;;;6306762;22;20038;-67
2023/07/23 12:52:23;;;;;;;10.98;3.30;;;;;;;;;;6306831;22;20003;-67
2023/07/23 12:54:48;;;;;;;14.98;3.47;;;;;;;;;;6307412;22;20015;-67
2023/07/23 12:57:16;;;;;;;13.15;3.65;;;;;;;;;;6305463;22;20456;-67
2023/07/23 12:59:43;;;;;;;14.18;3.90;;;;;;;;;;6307185;22;20102;-67
2023/07/23 13:02:09;;;;;;;11.43;3.50;;;;;;;;;;6307029;22;20425;-67
2023/07/23 13:04:36;;;;;;;16.63;4.00;;;;;;;;;;6306735;22;20006;-66
2023/07/23 13:07:02;;;;;;;21.02;4.13;;;;;;;;;;6306591;22;20021;-67
2023/07/23 13:09:27;;;;;;;12.38;3.45;;;;;;;;;;6306870;22;20011;-67
2023/07/23 13:11:53;;;;;;;16.75;4.00;;;;;;;;;;6279573;22;20017;-67
2023/07/23 13:14:19;;;;;;;12.95;3.25;;;;;;;;;;6306290;22;20003;-67
2023/07/23 13:16:45;;;;;;;12.40;3.63;;;;;;;;;;6306802;22;20007;-67
2023/07/23 13:19:10;;;;;;;13.90;3.55;;;;;;;;;;6307217;22;20013;-66
2023/07/23 13:21:36;;;;;;;18.00;3.75;;;;;;;;;;6307118;22;20003;-66
2023/07/23 13:24:02;;;;;;;14.88;3.35;;;;;;;;;;6306707;22;20034;-65
2023/07/23 13:26:28;;;;;;;19.48;3.70;;;;;;;;;;6307055;22;20007;-66
2023/07/23 13:28:54;;;;;;;14.75;3.10;;;;;;;;;;6279714;22;20392;-67
2023/07/23 13:31:20;;;;;;;14.05;3.72;;;;;;;;;;6307249;22;19995;-67
2023/07/23 13:33:46;;;;;;;12.98;3.60;;;;;;;;;;6304892;22;20015;-67
2023/07/23 13:36:12;;;;;;;17.88;3.95;;;;;;;;;;6279991;22;20341;-67
2023/07/23 13:38:37;;;;;;;13.68;3.60;;;;;;;;;;6307170;22;20013;-66
2023/07/23 13:41:04;;;;;;;15.45;3.70;;;;;;;;;;6306737;22;20015;-65
2023/07/23 13:43:29;;;;;;;15.55;4.10;;;;;;;;;;6306976;22;20453;-66
2023/07/23 13:45:55;;;;;;;13.23;3.78;;;;;;;;;;6306884;22;20030;-67
2023/07/23 13:48:21;;;;;;;20.90;4.57;;;;;;;;;;6306780;22;20042;-66
2023/07/23 13:50:46;;;;;;;14.00;3.33;;;;;;;;;;6279162;22;20015;-66
2023/07/23 13:53:12;;;;;;;14.23;4.07;;;;;;;;;;6306143;22;19999;-66
2023/07/23 13:55:38;;;;;;;14.93;3.72;;;;;;;;;;6306323;22;20015;-66
2023/07/23 13:58:06;;;;;;;14.85;3.67;;;;;;;;;;6306532;22;20075;-68
2023/07/23 14:00:33;;;;;;;11.73;3.30;;;;;;;;;;6306378;22;20011;-67
2023/07/23 14:02:58;;;;;;;14.25;3.33;;;;;;;;;;6306222;22;20000;-66
2023/07/23 14:05:28;;;;;;;12.27;3.30;;;;;;;;;;6306542;22;20056;-66
2023/07/23 14:07:57;;;;;;;11.88;3.50;;;;;;;;;;6305221;22;20012;-66
2023/07/23 14:10:23;;;;;;;13.65;3.20;;;;;;;;;;6306101;22;20009;-66
2023/07/23 14:12:49;;;;;;;13.88;3.47;;;;;;;;;;6306187;22;20265;-67
2023/07/23 14:15:15;;;;;;;12.13;3.33;;;;;;;;;;6306316;22;20003;-66
2023/07/23 14:17:41;;;;;;;16.33;3.28;;;;;;;;;;6306295;22;20007;-67
2023/07/23 14:20:07;;;;;;;9.48;3.63;;;;;;;;;;6306575;22;20011;-67
2023/07/23 14:22:32;;;;;;;19.88;3.85;;;;;;;;;;6278593;22;20026;-67
2023/07/23 14:24:58;;;;;;;9.75;3.08;;;;;;;;;;6306006;22;20015;-66
2023/07/23 14:27:24;;;;;;;16.02;3.60;;;;;;;;;;6306014;22;20014;-67
2023/07/23 14:29:50;;;;;;;10.65;3.15;;;;;;;;;;6306241;22;20013;-67